Time;durP1;ratioP1;P1;durP2;ratioP2;P2;SDS_P1;SDS_P2;PMS_P1;PMS_P2;Temp;Humidity;BMP_temperature;BMP_pressure;BME280_temperature;BME280_humidity;BME280_pressure;Samples;Min_cycle;Max_cycle;Signal;HPM_P1;HPM_P2
2023/03/26 00:01:12;;;;;;;7.97;3.33;;;;;;;10.16;100.00;100347.03;5067722;28;20055;-76
2023/03/26 00:03:40;;;;;;;4.28;1.50;;;;;;;10.30;100.00;100342.19;5066826;28;20060;-74
2023/03/26 00:06:15;;;;;;;17.98;4.38;;;;;;;10.22;100.00;100350.91;5067896;28;20056;-74
2023/03/26 00:08:43;;;;;;;;;;;;;;;10.32;100.00;100348.09;5066913;28;20155;-72
2023/03/26 00:11:14;;;;;;;8.43;3.80;;;;;;;10.22;100.00;100362.78;5067537;28;20301;-73
2023/03/26 00:13:42;;;;;;;19.17;4.15;;;;;;;10.40;100.00;100346.84;5065080;28;20040;-76
2023/03/26 00:16:12;;;;;;;19.23;4.60;;;;;;;10.49;100.00;100349.97;5062166;28;20114;-73
2023/03/26 00:18:41;;;;;;;8.15;3.10;;;;;;;10.37;100.00;100352.44;5047523;28;20048;-75
2023/03/26 00:21:11;;;;;;;9.63;2.78;;;;;;;10.35;100.00;100344.53;5066590;28;20518;-75
2023/03/26 00:23:38;;;;;;;12.80;1.95;;;;;;;10.40;100.00;100343.31;5063970;28;20051;-74
2023/03/26 00:26:09;;;;;;;13.63;3.85;;;;;;;10.38;100.00;100343.72;5048819;28;20135;-76
2023/03/26 00:28:39;;;;;;;13.80;4.70;;;;;;;10.45;100.00;100351.97;5065775;28;20052;-74
2023/03/26 00:31:09;;;;;;;21.63;4.45;;;;;;;10.56;100.00;100348.34;5066138;28;20155;-74
2023/03/26 00:33:37;;;;;;;23.27;4.88;;;;;;;10.47;100.00;100352.34;5065543;28;20075;-77
2023/03/26 00:36:08;;;;;;;18.25;5.10;;;;;;;10.50;100.00;100340.47;5060625;28;20070;-72
2023/03/26 00:38:37;;;;;;;14.98;3.05;;;;;;;10.53;100.00;100336.91;5065173;28;20056;-75
2023/03/26 00:41:06;;;;;;;18.67;4.60;;;;;;;10.50;100.00;100337.69;5066538;28;20529;-75
2023/03/26 00:43:34;;;;;;;24.67;6.03;;;;;;;10.57;100.00;100334.13;5066393;28;20487;-77
2023/03/26 00:46:01;;;;;;;17.48;5.18;;;;;;;10.56;100.00;100329.00;5065221;28;20522;-72
2023/03/26 00:48:28;;;;;;;19.90;4.13;;;;;;;10.53;100.00;100334.13;5066207;28;20049;-75
2023/03/26 00:51:14;;;;;;;21.55;5.45;;;;;;;10.54;100.00;100330.16;5066048;28;20045;-74
2023/03/26 00:53:45;;;;;;;22.83;4.43;;;;;;;10.54;100.00;100327.41;5066498;28;20102;-75
2023/03/26 00:56:12;;;;;;;13.70;3.05;;;;;;;10.48;100.00;100328.25;5064525;28;20052;-73
2023/03/26 00:58:39;;;;;;;23.35;5.38;;;;;;;10.46;100.00;100327.84;5067113;28;20060;-73
2023/03/26 01:01:19;;;;;;;22.58;6.22;;;;;;;10.54;100.00;100330.16;5065426;28;20139;-74
2023/03/26 01:03:46;;;;;;;14.15;3.60;;;;;;;10.40;100.00;100319.19;5070326;28;20085;-73
2023/03/26 01:06:34;;;;;;;22.17;5.10;;;;;;;10.47;100.00;100321.91;5066090;28;20048;-74
2023/03/26 01:09:12;;;;;;;27.95;6.57;;;;;;;10.54;100.00;100321.09;5062143;28;20503;-73
2023/03/26 01:11:38;;;;;;;19.85;4.00;;;;;;;10.46;100.00;100317.59;5063951;28;20048;-75
2023/03/26 01:14:07;;;;;;;26.42;5.38;;;;;;;10.48;100.00;100320.75;5068160;28;20059;-74
2023/03/26 01:16:44;;;;;;;20.35;3.92;;;;;;;10.41;100.00;100312.50;5065842;28;20047;-77
2023/03/26 01:19:22;;;;;;;16.88;4.55;;;;;;;10.47;100.00;100308.09;5065982;28;20055;-75
2023/03/26 01:21:49;;;;;;;23.23;6.00;;;;;;;10.47;100.00;100305.31;5065164;28;20127;-74
2023/03/26 01:24:15;;;;;;;26.27;6.05;;;;;;;10.52;100.00;100300.56;5069395;28;20041;-75
2023/03/26 01:26:51;;;;;;;38.35;8.00;;;;;;;10.49;100.00;100300.19;5066504;28;20086;-76
2023/03/26 01:29:55;;;;;;;22.30;4.15;;;;;;;10.35;100.00;100292.00;5061982;28;20044;-74
2023/03/26 01:32:46;;;;;;;29.65;5.63;;;;;;;10.51;100.00;100297.00;5063689;28;20044;-74
2023/03/26 01:35:34;;;;;;;11.13;4.05;;;;;;;10.45;100.00;100284.81;5065985;28;20051;-74
2023/03/26 01:38:11;;;;;;;3.25;1.85;;;;;;;10.47;100.00;100290.72;5066212;28;20131;-73
2023/03/26 01:40:45;;;;;;;30.45;6.80;;;;;;;10.62;100.00;100285.84;5062898;28;20079;-74
2023/03/26 01:43:20;;;;;;;32.72;5.13;;;;;;;10.53;100.00;100287.09;5068147;28;20088;-77
2023/03/26 01:45:50;;;;;;;14.43;4.05;;;;;;;10.48;100.00;100275.69;5065035;28;20048;-77
2023/03/26 01:48:16;;;;;;;25.75;5.68;;;;;;;10.59;100.00;100278.38;5064913;28;20067;-76
2023/03/26 01:50:43;;;;;;;19.63;5.95;;;;;;;10.61;100.00;100276.78;5071897;28;20048;-74
2023/03/26 01:53:12;;;;;;;22.33;6.40;;;;;;;10.57;100.00;100273.25;5069251;28;20059;-75
2023/03/26 01:55:54;;;;;;;27.75;5.25;;;;;;;10.57;100.00;100266.94;5071808;28;20446;-77
2023/03/26 01:58:35;;;;;;;19.67;2.88;;;;;;;10.47;100.00;100263.06;5067631;28;20052;-75
2023/03/26 02:01:26;;;;;;;28.90;4.53;;;;;;;10.53;100.00;100262.22;5066061;28;20485;-74
2023/03/26 02:04:12;;;;;;;32.88;4.70;;;;;;;10.52;100.00;100257.88;5069690;28;20040;-75
2023/03/26 02:06:57;;;;;;;28.13;5.30;;;;;;;10.53;100.00;100253.91;5065481;28;20048;-76
2023/03/26 02:09:29;;;;;;;24.93;5.53;;;;;;;10.55;100.00;100253.50;5067867;28;20047;-76
2023/03/26 02:11:57;;;;;;;10.30;1.73;;;;;;;10.49;100.00;100244.84;5062992;28;20055;-75
2023/03/26 02:14:24;;;;;;;8.23;2.92;;;;;;;10.45;100.00;100241.34;5065618;28;20045;-75
2023/03/26 02:16:50;;;;;;;15.32;2.72;;;;;;;10.46;100.00;100231.84;5069645;28;20127;-73
2023/03/26 02:19:20;;;;;;;3.10;1.50;;;;;;;10.38;100.00;100233.09;5068970;28;20059;-75
2023/03/26 02:21:50;;;;;;;29.00;5.07;;;;;;;10.43;100.00;100231.88;5068543;28;20509;-75
2023/03/26 02:24:18;;;;;;;23.33;4.28;;;;;;;10.41;100.00;100226.75;5067767;28;20083;-78
2023/03/26 02:26:44;;;;;;;16.70;2.58;;;;;;;10.34;100.00;100231.56;5072602;28;20050;-76
2023/03/26 02:29:19;;;;;;;12.20;2.50;;;;;;;10.34;100.00;100224.06;5062210;28;20048;-74
2023/03/26 02:31:47;;;;;;;28.65;4.80;;;;;;;10.34;100.00;100218.53;5062945;28;20071;-75
2023/03/26 02:34:15;;;;;;;28.60;5.95;;;;;;;10.35;100.00;100206.25;5066019;28;20052;-76
2023/03/26 02:36:41;;;;;;;30.48;5.63;;;;;;;10.39;100.00;100206.22;5051971;28;20052;-76
2023/03/26 02:39:10;;;;;;;30.52;5.00;;;;;;;10.35;100.00;100209.03;5074148;28;20072;-74
2023/03/26 02:41:37;;;;;;;21.83;4.68;;;;;;;10.29;100.00;100213.41;5065861;28;20036;-74
2023/03/26 02:44:07;;;;;;;11.68;3.30;;;;;;;10.24;100.00;100205.56;5067845;28;20080;-77
2023/03/26 02:46:33;;;;;;;9.05;3.45;;;;;;;10.18;100.00;100204.44;5065597;28;20057;-72
2023/03/26 02:49:00;;;;;;;16.23;3.35;;;;;;;10.22;100.00;100207.94;5069179;28;20052;-74
2023/03/26 02:51:27;;;;;;;11.27;2.20;;;;;;;10.19;100.00;100202.44;5074493;28;20565;-76
2023/03/26 02:53:54;;;;;;;30.50;5.05;;;;;;;10.21;100.00;100205.59;5049556;28;20045;-74
2023/03/26 02:56:21;;;;;;;28.67;4.80;;;;;;;10.23;100.00;100195.69;5072694;28;20082;-75
2023/03/26 02:58:47;;;;;;;17.83;3.13;;;;;;;10.19;100.00;100210.72;5049843;28;20050;-75
2023/03/26 03:01:16;;;;;;;10.02;2.55;;;;;;;10.12;100.00;100194.19;5067308;28;20044;-74
2023/03/26 03:03:46;;;;;;;26.75;5.40;;;;;;;10.07;100.00;100195.44;5075310;28;20037;-74
2023/03/26 03:06:16;;;;;;;35.97;5.47;;;;;;;10.11;100.00;100190.66;5067295;28;20040;-75
2023/03/26 03:08:44;;;;;;;22.02;3.30;;;;;;;10.12;100.00;100195.00;5067800;28;20460;-75
2023/03/26 03:11:14;;;;;;;8.35;2.67;;;;;;;10.09;100.00;100189.47;5064488;28;20049;-76
2023/03/26 03:13:43;;;;;;;26.27;4.65;;;;;;;10.20;100.00;100181.91;5075533;28;20072;-75
2023/03/26 03:16:10;;;;;;;32.65;4.93;;;;;;;10.18;100.00;100178.75;5063630;28;20055;-74
2023/03/26 03:18:36;;;;;;;19.40;5.68;;;;;;;10.05;100.00;100175.66;5062798;28;20462;-76
2023/03/26 03:21:04;;;;;;;29.88;5.57;;;;;;;10.13;100.00;100166.13;5056158;28;20053;-74
2023/03/26 03:23:31;;;;;;;16.02;4.43;;;;;;;10.10;100.00;100166.94;5068516;28;20045;-74
2023/03/26 03:25:58;;;;;;;43.58;4.63;;;;;;;10.01;100.00;100158.31;5072969;28;20048;-75
2023/03/26 03:28:25;;;;;;;25.77;4.75;;;;;;;10.01;100.00;100144.50;5061047;28;20067;-73
2023/03/26 03:30:52;;;;;;;26.67;5.95;;;;;;;10.09;100.00;100148.00;5062653;28;20041;-76
2023/03/26 03:33:19;;;;;;;29.85;5.10;;;;;;;10.04;100.00;100145.66;5061219;28;20462;-73
2023/03/26 03:35:47;;;;;;;34.15;5.75;;;;;;;10.00;100.00;100145.69;5059239;28;20148;-75
2023/03/26 03:38:18;;;;;;;27.77;5.40;;;;;;;10.00;100.00;100140.16;5055115;28;20444;-75
2023/03/26 03:40:45;;;;;;;35.58;5.53;;;;;;;9.99;100.00;100140.59;5057432;28;20048;-74
2023/03/26 03:43:11;;;;;;;26.65;5.22;;;;;;;9.96;100.00;100131.09;5059412;28;20055;-75
2023/03/26 03:45:37;;;;;;;29.75;5.53;;;;;;;9.90;100.00;100143.81;5063748;28;20045;-75
2023/03/26 03:48:04;;;;;;;24.92;6.38;;;;;;;9.82;100.00;100144.28;5067001;28;20045;-75
2023/03/26 03:50:31;;;;;;;32.13;6.10;;;;;;;9.78;100.00;100130.47;5062474;28;20041;-74
2023/03/26 03:53:01;;;;;;;32.25;5.07;;;;;;;9.69;100.00;100135.66;5056708;28;20053;-75
2023/03/26 03:55:28;;;;;;;35.53;6.50;;;;;;;9.71;100.00;100135.25;5063788;28;20124;-74
2023/03/26 03:57:57;;;;;;;38.80;6.28;;;;;;;9.72;100.00;100134.06;5063716;28;20563;-75
2023/03/26 04:00:23;;;;;;;37.63;6.45;;;;;;;9.77;100.00;100137.19;5055209;28;20107;-74
2023/03/26 04:02:53;;;;;;;27.70;5.57;;;;;;;9.76;100.00;100130.06;5067662;28;20581;-75
2023/03/26 04:05:20;;;;;;;23.75;6.18;;;;;;;9.80;100.00;100130.84;5061649;28;20040;-77
2023/03/26 04:07:47;;;;;;;34.50;5.95;;;;;;;9.78;100.00;100132.44;5065825;28;20048;-76
2023/03/26 04:10:14;;;;;;;39.58;7.75;;;;;;;9.81;100.00;100120.56;5057601;28;20482;-78
2023/03/26 04:12:41;;;;;;;28.55;5.75;;;;;;;9.81;100.00;100120.56;5058410;28;20117;-75
2023/03/26 04:15:08;;;;;;;34.72;6.30;;;;;;;9.78;100.00;100116.66;5057960;28;20044;-75
2023/03/26 04:17:41;;;;;;;27.02;6.32;;;;;;;9.79;100.00;100120.97;5055057;28;20048;-73
2023/03/26 04:20:13;;;;;;;29.75;6.63;;;;;;;9.77;100.00;100117.06;5066178;28;20061;-74
2023/03/26 04:22:44;;;;;;;26.90;5.47;;;;;;;9.79;100.00;100120.22;5060028;28;20063;-74
2023/03/26 04:25:12;;;;;;;29.08;5.93;;;;;;;9.79;100.00;100115.44;5066004;28;20044;-75
2023/03/26 04:27:40;;;;;;;31.95;6.43;;;;;;;9.77;100.00;100104.03;5040216;28;20049;-74
2023/03/26 04:30:11;;;;;;;32.50;6.47;;;;;;;9.78;100.00;100100.06;5041330;28;20055;-74
2023/03/26 04:32:39;;;;;;;32.17;5.90;;;;;;;9.78;100.00;100100.06;5040854;28;20411;-74
2023/03/26 04:35:06;;;;;;;36.17;6.60;;;;;;;9.76;100.00;100096.91;5044882;28;20431;-77
2023/03/26 04:37:38;;;;;;;25.30;6.25;;;;;;;9.73;100.00;100089.47;5059203;28;20072;-72
2023/03/26 04:40:09;;;;;;;25.10;4.90;;;;;;;9.72;100.00;100093.41;5064584;28;20907;-75
2023/03/26 04:42:40;;;;;;;27.13;5.97;;;;;;;9.72;100.00;100085.13;5058990;28;20059;-75
2023/03/26 04:45:08;;;;;;;28.30;5.60;;;;;;;9.71;100.00;100088.28;5062970;28;20051;-77
2023/03/26 04:47:35;;;;;;;28.30;5.70;;;;;;;9.69;100.00;100077.66;5067805;28;20052;-75
2023/03/26 04:50:04;;;;;;;32.55;5.93;;;;;;;9.69;100.00;100079.63;5060662;28;20080;-75
2023/03/26 04:52:31;;;;;;;22.00;4.55;;;;;;;9.67;100.00;100074.53;5055641;28;20517;-75
2023/03/26 04:54:58;;;;;;;31.05;5.32;;;;;;;9.68;100.00;100073.31;5058136;28;20048;-74
2023/03/26 04:57:35;;;;;;;25.88;5.32;;;;;;;9.66;100.00;100066.63;5071085;28;20059;-75
2023/03/26 05:00:13;;;;;;;26.33;5.47;;;;;;;9.68;100.00;100062.28;5061876;28;20079;-72
2023/03/26 05:02:44;;;;;;;18.65;4.93;;;;;;;9.68;100.00;100062.28;5065695;28;20048;-75
2023/03/26 05:05:11;;;;;;;27.27;5.63;;;;;;;9.67;100.00;100046.09;5063982;28;20464;-75
2023/03/26 05:07:37;;;;;;;24.42;5.53;;;;;;;9.65;100.00;100052.03;5048047;28;20044;-75
2023/03/26 05:10:05;;;;;;;26.98;6.70;;;;;;;9.61;100.00;100043.00;5059370;28;20052;-75
2023/03/26 05:12:31;;;;;;;31.05;5.93;;;;;;;9.64;100.00;100056.00;5041641;28;20087;-75
2023/03/26 05:14:57;;;;;;;32.55;6.25;;;;;;;9.62;100.00;100047.31;5058926;28;20127;-74
2023/03/26 05:17:24;;;;;;;35.60;5.25;;;;;;;9.65;100.00;100040.22;5068516;28;20049;-75
2023/03/26 05:19:51;;;;;;;26.35;4.85;;;;;;;9.62;100.00;100036.28;5064949;28;20155;-75
2023/03/26 05:22:18;;;;;;;34.78;5.47;;;;;;;9.64;100.00;100044.94;5064851;28;20518;-75
2023/03/26 05:24:44;;;;;;;28.20;5.95;;;;;;;9.65;100.00;100037.44;5069539;28;20048;-75
2023/03/26 05:27:21;;;;;;;32.15;5.50;;;;;;;9.66;100.00;100034.25;5070044;28;20418;-76
2023/03/26 05:29:47;;;;;;;29.30;5.85;;;;;;;9.66;100.00;100025.97;5063796;28;20044;-77
2023/03/26 05:32:14;;;;;;;35.85;6.18;;;;;;;9.70;100.00;100025.97;5065127;28;20067;-75
2023/03/26 05:34:40;;;;;;;28.75;5.72;;;;;;;9.69;100.00;100030.69;5070592;28;20047;-73
2023/03/26 05:37:08;;;;;;;26.42;5.28;;;;;;;9.66;100.00;100016.91;5079997;28;20055;-75
2023/03/26 05:39:34;;;;;;;33.80;5.15;;;;;;;9.73;100.00;100019.63;5064556;28;20044;-75
2023/03/26 05:42:01;;;;;;;25.98;5.55;;;;;;;9.76;100.00;100013.28;5067619;28;20059;-75
2023/03/26 05:44:28;;;;;;;26.20;5.25;;;;;;;9.77;100.00;100012.06;5066265;28;20052;-76
2023/03/26 05:46:54;;;;;;;29.83;4.97;;;;;;;9.76;100.00;99996.69;5065740;28;20444;-75
2023/03/26 05:49:21;;;;;;;27.83;6.85;;;;;;;9.78;100.00;100000.63;5063412;28;20595;-75
2023/03/26 05:51:47;;;;;;;38.95;9.35;;;;;;;9.80;100.00;99991.94;5078191;28;20054;-76
2023/03/26 05:54:14;;;;;;;22.50;5.85;;;;;;;9.81;100.00;99987.97;5055320;28;20056;-75
2023/03/26 05:56:40;;;;;;;28.15;5.97;;;;;;;9.82;100.00;99982.03;5075282;28;20044;-75
2023/03/26 05:59:07;;;;;;;31.65;5.72;;;;;;;9.84;100.00;99982.41;5068585;28;20052;-76
2023/03/26 06:01:33;;;;;;;38.70;5.57;;;;;;;9.86;100.00;99984.78;5067148;28;20044;-75
2023/03/26 06:04:00;;;;;;;28.80;5.68;;;;;;;9.86;100.00;99974.47;5071255;28;20048;-76
2023/03/26 06:06:27;;;;;;;29.13;5.25;;;;;;;9.89;100.00;99976.44;5067420;28;20132;-75
2023/03/26 06:08:54;;;;;;;33.33;9.68;;;;;;;9.87;100.00;99972.50;5069334;28;20044;-74
2023/03/26 06:11:28;;;;;;;41.73;11.70;;;;;;;9.85;100.00;99967.41;5068002;28;20048;-75
2023/03/26 06:13:55;;;;;;;36.08;8.90;;;;;;;9.83;100.00;99961.47;5069999;28;20777;-75
2023/03/26 06:16:22;;;;;;;29.52;7.22;;;;;;;9.87;100.00;99955.94;5070083;28;20128;-75
2023/03/26 06:18:53;;;;;;;27.67;6.90;;;;;;;9.90;100.00;99955.91;5068946;28;20048;-75
2023/03/26 06:21:23;;;;;;;30.60;5.47;;;;;;;9.95;100.00;99957.41;5071461;28;20052;-77
2023/03/26 06:23:50;;;;;;;22.20;4.55;;;;;;;9.99;100.00;99949.91;5069303;28;20429;-75
2023/03/26 06:26:17;;;;;;;24.40;6.07;;;;;;;9.98;100.00;99940.03;5072484;28;20052;-76
2023/03/26 06:28:44;;;;;;;22.52;4.97;;;;;;;10.01;100.00;99947.50;5067040;28;20457;-75
2023/03/26 06:31:10;;;;;;;28.17;5.50;;;;;;;10.03;100.00;99942.34;5069467;28;20548;-75
2023/03/26 06:33:37;;;;;;;21.60;4.88;;;;;;;10.04;100.00;99941.94;5069900;28;20055;-77
2023/03/26 06:36:04;;;;;;;24.65;4.80;;;;;;;10.09;100.00;99955.31;5051554;28;20060;-76
2023/03/26 06:38:31;;;;;;;22.08;4.70;;;;;;;10.11;100.00;99946.63;5067212;28;20147;-76
2023/03/26 06:41:02;;;;;;;25.70;5.57;;;;;;;10.12;100.00;99946.22;5069362;28;20045;-75
2023/03/26 06:43:32;;;;;;;28.52;5.18;;;;;;;10.17;100.00;99956.03;5067664;28;20131;-74
2023/03/26 06:46:02;;;;;;;30.50;5.05;;;;;;;10.17;100.00;99953.28;5069415;28;20044;-74
2023/03/26 06:48:29;;;;;;;32.67;7.38;;;;;;;10.20;100.00;99957.97;5069077;28;20036;-76
2023/03/26 06:50:56;;;;;;;23.58;5.00;;;;;;;10.17;100.00;99954.03;5054526;28;20076;-76
2023/03/26 06:53:23;;;;;;;20.20;3.88;;;;;;;10.12;100.00;99957.25;5042294;28;20164;-75
2023/03/26 06:55:49;;;;;;;17.15;4.00;;;;;;;10.13;100.00;99961.59;5072266;28;20068;-78
2023/03/26 06:58:16;;;;;;;28.88;4.13;;;;;;;10.15;100.00;99964.75;5065891;28;20048;-76
2023/03/26 07:00:42;;;;;;;25.15;4.25;;;;;;;10.15;100.00;99956.44;5068002;28;20049;-75
2023/03/26 07:03:10;;;;;;;23.90;5.00;;;;;;;10.19;100.00;99954.41;5072857;28;20055;-74
2023/03/26 07:05:40;;;;;;;17.85;3.85;;;;;;;10.20;100.00;99953.22;5067583;28;20044;-76
2023/03/26 07:08:06;;;;;;;28.67;4.43;;;;;;;10.23;100.00;99949.63;5066042;28;20400;-78
2023/03/26 07:10:33;;;;;;;30.85;4.60;;;;;;;10.27;100.00;99946.84;5074269;28;20135;-76
2023/03/26 07:12:59;;;;;;;19.17;4.45;;;;;;;10.29;100.00;99942.44;5071783;28;20091;-74
2023/03/26 07:15:27;;;;;;;21.48;4.18;;;;;;;10.31;100.00;99940.06;5072810;28;20345;-75
2023/03/26 07:17:54;;;;;;;22.13;3.90;;;;;;;10.31;100.00;99933.75;5060099;28;20044;-75
2023/03/26 07:20:21;;;;;;;14.57;3.47;;;;;;;10.27;100.00;99933.00;5065464;28;20078;-77
2023/03/26 07:22:48;;;;;;;21.88;4.38;;;;;;;10.40;100.00;99932.03;5065770;28;20059;-76
2023/03/26 07:25:16;;;;;;;25.92;3.92;;;;;;;10.44;100.00;99932.75;5073300;28;20215;-77
2023/03/26 07:27:47;;;;;;;20.20;3.40;;;;;;;10.50;100.00;99930.34;5069926;28;20419;-78
2023/03/26 07:30:25;;;;;;;26.77;3.75;;;;;;;10.54;100.00;99923.53;5067649;28;20497;-76
2023/03/26 07:32:57;;;;;;;24.52;4.20;;;;;;;10.60;100.00;99925.88;5052865;28;20052;-76
2023/03/26 07:35:37;;;;;;;18.98;3.78;;;;;;;10.63;100.00;99913.97;5063695;28;20054;-76
2023/03/26 07:38:22;;;;;;;21.80;4.18;;;;;;;10.65;100.00;99908.78;5053185;28;20107;-76
2023/03/26 07:41:10;;;;;;;19.70;3.97;;;;;;;10.63;100.00;99911.19;5067287;28;20037;-75
2023/03/26 07:43:52;;;;;;;20.92;3.83;;;;;;;10.70;100.00;99911.09;5044150;28;20147;-76
2023/03/26 07:46:24;;;;;;;29.55;4.95;;;;;;;10.72;100.00;99901.19;5065674;28;20072;-78
2023/03/26 07:48:53;;;;;;;16.15;4.32;;;;;;;10.75;100.00;99894.00;5057881;28;20569;-76
2023/03/26 07:51:20;;;;;;;18.85;4.47;;;;;;;10.74;100.00;99896.03;5062028;28;20044;-77
2023/03/26 07:53:47;;;;;;;21.98;3.92;;;;;;;10.79;100.00;99897.50;5057187;28;20052;-78
2023/03/26 07:56:20;;;;;;;24.83;4.38;;;;;;;10.82;100.00;99891.94;5067026;28;20045;-77
2023/03/26 07:58:58;;;;;;;23.80;4.13;;;;;;;10.88;100.00;99893.03;5063732;28;20578;-75
2023/03/26 08:01:43;;;;;;;22.60;4.10;;;;;;;10.93;100.00;99887.00;5067908;28;20055;-77
2023/03/26 08:04:35;;;;;;;23.40;4.60;;;;;;;10.92;100.00;99890.19;5064811;28;20055;-77
2023/03/26 08:07:10;;;;;;;16.52;4.80;;;;;;;11.00;100.00;99875.06;5074465;28;20064;-76
2023/03/26 08:09:57;;;;;;;22.80;5.45;;;;;;;11.06;100.00;99881.66;5062367;28;20744;-75
2023/03/26 08:12:47;;;;;;;20.88;4.10;;;;;;;11.05;100.00;99872.59;5058733;28;20507;-74
2023/03/26 08:15:20;;;;;;;21.27;5.03;;;;;;;11.10;100.00;99871.34;5058161;28;20067;-78
2023/03/26 08:17:55;;;;;;;24.25;4.53;;;;;;;11.15;100.00;99870.84;5068970;28;20050;-78
2023/03/26 08:20:34;;;;;;;18.88;4.07;;;;;;;11.17;100.00;99869.22;5045195;28;20068;-79
2023/03/26 08:23:22;;;;;;;20.45;4.78;;;;;;;11.25;100.00;99878.19;5062434;28;20055;-78
2023/03/26 08:26:17;;;;;;;20.00;4.78;;;;;;;11.28;100.00;99864.31;5051679;28;20146;-77
2023/03/26 08:28:44;;;;;;;24.48;4.45;;;;;;;11.33;100.00;99866.56;5065311;28;20495;-76
2023/03/26 08:31:14;;;;;;;27.23;4.93;;;;;;;11.31;100.00;99865.44;5065989;28;20060;-76
2023/03/26 08:33:40;;;;;;;25.15;4.65;;;;;;;11.32;100.00;99861.44;5063591;28;20044;-74
2023/03/26 08:36:08;;;;;;;22.80;5.10;;;;;;;11.31;100.00;99859.91;5066859;28;20483;-76
2023/03/26 08:38:34;;;;;;;24.58;6.05;;;;;;;11.35;100.00;99866.94;5054701;28;20044;-75
2023/03/26 08:41:07;;;;;;;20.13;5.30;;;;;;;11.36;100.00;99857.41;5067637;28;20059;-77
2023/03/26 08:44:12;;;;;;;18.92;4.28;;;;;;;11.34;100.00;99867.34;5064971;28;20049;-75
2023/03/26 08:47:06;;;;;;;21.98;4.15;;;;;;;11.26;100.00;99863.13;5064079;28;20052;-77
2023/03/26 08:49:56;;;;;;;31.10;7.28;;;;;;;11.28;100.00;99864.31;5060145;28;20049;-79
2023/03/26 08:52:47;;;;;;;18.42;3.90;;;;;;;11.23;100.00;99856.47;5061802;28;20052;-77
2023/03/26 08:55:51;;;;;;;22.05;4.32;;;;;;;11.20;100.00;99856.53;5049049;28;20427;-78
2023/03/26 08:58:42;;;;;;;18.95;3.20;;;;;;;11.16;100.00;99856.59;5056293;28;20044;-77
2023/03/26 09:01:44;;;;;;;19.38;3.70;;;;;;;11.11;100.00;99859.84;5063411;28;20430;-76
2023/03/26 09:04:48;;;;;;;30.40;3.92;;;;;;;11.05;100.00;99852.44;5061137;28;20076;-76
2023/03/26 09:07:46;;;;;;;19.42;5.05;;;;;;;11.06;100.00;99851.22;5053974;28;20048;-75
2023/03/26 09:10:56;;;;;;;25.42;4.32;;;;;;;11.05;100.00;99855.97;5073100;28;20063;-76
2023/03/26 09:13:34;;;;;;;22.05;5.70;;;;;;;11.10;100.00;99854.72;5042005;28;20057;-78
2023/03/26 09:16:25;;;;;;;17.27;4.38;;;;;;;11.11;100.00;99859.06;5067228;28;20549;-76
2023/03/26 09:18:56;;;;;;;17.17;4.00;;;;;;;11.15;100.00;99860.56;5067465;28;20062;-81
2023/03/26 09:21:57;;;;;;;24.75;4.78;;;;;;;11.14;100.00;99856.22;5062051;28;20053;-77
2023/03/26 09:24:41;;;;;;;23.25;5.53;;;;;;;11.14;100.00;99853.44;5063144;28;20053;-78
2023/03/26 09:27:20;;;;;;;20.85;5.15;;;;;;;11.15;100.00;99851.47;5059581;28;20075;-78
2023/03/26 09:30:31;;;;;;;18.73;4.60;;;;;;;11.18;100.00;99847.84;5058793;28;20048;-78
2023/03/26 09:33:08;;;;;;;19.88;3.60;;;;;;;11.18;100.00;99850.63;4959262;28;20067;-80
2023/03/26 09:36:20;;;;;;;16.90;4.20;;;;;;;11.17;100.00;99858.13;5055254;28;20052;-81
2023/03/26 09:39:10;;;;;;;23.95;4.53;;;;;;;11.21;100.00;99853.34;5058648;28;20094;-80
2023/03/26 09:41:42;;;;;;;18.45;4.43;;;;;;;11.22;100.00;99845.81;5022652;28;20049;-77
2023/03/26 09:44:21;;;;;;;12.25;4.10;;;;;;;11.23;100.00;99848.16;5057699;28;20049;-80
2023/03/26 09:47:26;;;;;;;23.17;6.13;;;;;;;11.25;100.00;99848.53;5058728;28;20044;-78
2023/03/26 09:50:18;;;;;;;22.23;5.28;;;;;;;11.30;100.00;99850.03;5053535;28;20052;-78
2023/03/26 09:52:49;;;;;;;21.95;4.75;;;;;;;11.34;100.00;99845.22;5059565;28;20131;-74
2023/03/26 09:55:48;;;;;;;19.23;4.57;;;;;;;11.35;100.00;99846.75;5042827;28;20055;-81
2023/03/26 09:58:31;;;;;;;21.65;4.82;;;;;;;11.37;100.00;99853.44;5053558;28;20049;-76
2023/03/26 10:01:26;;;;;;;21.58;4.40;;;;;;;11.36;100.00;99845.53;5059446;28;20159;-74
2023/03/26 10:04:04;;;;;;;17.35;4.82;;;;;;;11.34;100.00;99845.97;5059418;28;20099;-78
2023/03/26 10:07:08;;;;;;;20.00;4.15;;;;;;;11.35;100.00;99846.75;5063236;28;20577;-74
2023/03/26 10:09:59;;;;;;;17.73;4.95;;;;;;;11.39;100.00;99850.25;5064956;28;20048;-78
2023/03/26 10:12:34;;;;;;;21.67;4.60;;;;;;;11.43;100.00;99842.66;5063502;28;20055;-76
2023/03/26 10:15:35;;;;;;;18.60;4.22;;;;;;;11.44;100.00;99842.22;5065232;28;20057;-74
2023/03/26 10:18:19;;;;;;;27.45;5.75;;;;;;;11.46;100.00;99836.25;5061045;28;20037;-77
2023/03/26 10:21:04;;;;;;;19.95;4.50;;;;;;;11.49;100.00;99835.41;5070969;28;20045;-74
2023/03/26 10:23:59;;;;;;;22.60;5.82;;;;;;;11.52;100.00;99838.13;5067417;28;20058;-76
2023/03/26 10:27:06;;;;;;;20.25;5.68;;;;;;;11.54;100.00;99832.16;5064508;28;20424;-77
2023/03/26 10:29:35;;;;;;;22.85;5.57;;;;;;;11.58;100.00;99852.28;5068589;28;20468;-78
2023/03/26 10:32:32;;;;;;;21.02;5.28;;;;;;;11.59;100.00;99834.44;5062768;28;20052;-77
2023/03/26 10:35:20;;;;;;;20.75;5.38;;;;;;;11.63;100.00;99833.19;5062706;28;20490;-76
2023/03/26 10:38:41;;;;;;;13.85;3.72;;;;;;;11.60;100.00;99827.69;5068407;28;20102;-78
2023/03/26 10:41:40;;;;;;;13.93;3.35;;;;;;;11.67;100.00;99830.34;5042486;28;20159;-77
2023/03/26 10:44:44;;;;;;;16.33;3.70;;;;;;;11.69;100.00;99833.47;5065265;28;20076;-78
2023/03/26 10:47:32;;;;;;;7.80;2.00;;;;;;;11.68;100.00;99829.16;5065438;28;20040;-77
2023/03/26 10:50:18;;;;;;;11.82;4.28;;;;;;;11.68;100.00;99824.38;5065255;28;20052;-79
2023/03/26 10:52:54;;;;;;;13.23;3.85;;;;;;;11.71;100.00;99826.28;5067355;28;20062;-74
2023/03/26 10:55:44;;;;;;;18.95;4.10;;;;;;;11.72;100.00;99821.56;5064434;28;20052;-76
2023/03/26 10:58:30;;;;;;;8.20;2.67;;;;;;;11.75;100.00;99821.47;5063445;28;20052;-77
2023/03/26 11:01:34;;;;;;;14.55;3.33;;;;;;;11.76;100.00;99808.41;5062768;28;20692;-75
2023/03/26 11:04:14;;;;;;;12.13;2.40;;;;;;;11.77;100.00;99816.28;5060741;28;20084;-76
2023/03/26 11:06:50;;;;;;;9.18;1.92;;;;;;;11.80;100.00;99814.66;5066411;28;20365;-72
2023/03/26 11:09:44;;;;;;;12.30;2.53;;;;;;;11.80;100.00;99815.44;5072420;28;20075;-73
2023/03/26 11:12:35;;;;;;;8.40;2.30;;;;;;;11.84;100.00;99815.34;5065985;28;20227;-74
2023/03/26 11:15:23;;;;;;;7.10;2.35;;;;;;;11.88;100.00;99811.31;5060927;28;20153;-78
2023/03/26 11:18:15;;;;;;;12.52;2.78;;;;;;;11.88;100.00;99810.53;5066951;28;20040;-75
2023/03/26 11:21:04;;;;;;;8.70;2.40;;;;;;;11.87;100.00;99814.50;5036783;28;20056;-76
2023/03/26 11:24:08;;;;;;;5.60;2.13;;;;;;;11.89;100.00;99803.78;5064394;28;20052;-76
2023/03/26 11:26:48;;;;;;;8.07;2.33;;;;;;;11.89;100.00;99803.78;5043256;28;20040;-77
2023/03/26 11:29:50;;;;;;;9.15;2.20;;;;;;;11.89;100.00;99807.34;5049636;28;20510;-75
2023/03/26 11:32:21;;;;;;;16.10;3.97;;;;;;;11.85;100.00;99803.06;5042919;28;20063;-75
2023/03/26 11:34:53;;;;;;;16.00;5.40;;;;;;;11.88;100.00;99810.53;5062070;28;20669;-74
2023/03/26 11:37:29;;;;;;;11.65;4.50;;;;;;;11.87;100.00;99806.97;5064377;28;20044;-76
2023/03/26 11:39:58;;;;;;;11.40;3.10;;;;;;;11.91;100.00;99801.38;5044582;28;20050;-77
2023/03/26 11:42:26;;;;;;;12.82;2.50;;;;;;;11.95;100.00;99796.53;5065980;28;20834;-74
2023/03/26 11:45:03;;;;;;;26.63;16.23;;;;;;;11.92;100.00;99798.16;5051197;28;20493;-76
2023/03/26 11:47:39;;;;;;;9.30;3.40;;;;;;;11.94;100.00;99811.56;5061649;28;20047;-75
2023/03/26 11:50:09;;;;;;;;;;;;;;;11.90;100.00;99810.88;5066546;28;20102;-76
2023/03/26 11:52:36;;;;;;;15.68;4.85;;;;;;;11.92;100.00;99814.00;5063891;28;19924;-76